Time;durP1;ratioP1;P1;durP2;ratioP2;P2;SDS_P1;SDS_P2;PMS_P1;PMS_P2;Temp;Humidity;BMP_temperature;BMP_pressure;BME280_temperature;BME280_humidity;BME280_pressure;Samples;Min_cycle;Max_cycle;Signal;HPM_P1;HPM_P2
2022/10/12 00:00:02;;;;;;;1.53;1.30;;;7.30;98.20;;;;;;5086934;28;20470;-77
2022/10/12 00:02:29;;;;;;;1.50;1.30;;;7.30;98.20;;;;;;5068697;28;21175;-77
2022/10/12 00:04:59;;;;;;;1.53;1.30;;;7.20;98.20;;;;;;5087136;28;20808;-77
2022/10/12 00:07:25;;;;;;;1.60;1.30;;;7.20;98.20;;;;;;5075661;28;20489;-78
2022/10/12 00:09:52;;;;;;;1.60;1.50;;;7.20;98.20;;;;;;5086542;28;20460;-77
2022/10/12 00:12:21;;;;;;;1.50;1.23;;;7.20;98.20;;;;;;5069109;28;20501;-77
2022/10/12 00:14:48;;;;;;;1.57;1.30;;;7.20;98.20;;;;;;5086025;28;20480;-77
2022/10/12 00:17:14;;;;;;;1.53;1.30;;;7.10;98.20;;;;;;5071169;28;20500;-77
2022/10/12 00:19:41;;;;;;;1.50;1.30;;;7.10;98.20;;;;;;5092959;28;20473;-77
2022/10/12 00:22:08;;;;;;;1.50;1.30;;;7.10;98.20;;;;;;5071388;28;20528;-77
2022/10/12 00:24:35;;;;;;;1.53;1.30;;;7.10;98.20;;;;;;5092079;28;20468;-78
2022/10/12 00:27:02;;;;;;;1.50;1.30;;;7.10;98.20;;;;;;5072089;28;20487;-77
2022/10/12 00:29:30;;;;;;;1.50;1.30;;;7.00;98.20;;;;;;5085385;28;20469;-77
2022/10/12 00:31:57;;;;;;;1.50;1.30;;;7.00;98.20;;;;;;5078886;28;20480;-78
2022/10/12 00:34:24;;;;;;;1.57;1.30;;;7.00;98.20;;;;;;5092046;28;20571;-77
2022/10/12 00:36:51;;;;;;;1.53;1.20;;;7.00;98.20;;;;;;5079947;28;20568;-77
2022/10/12 00:39:18;;;;;;;1.50;1.27;;;7.00;98.20;;;;;;5085651;28;20555;-77
2022/10/12 00:41:45;;;;;;;1.60;1.40;;;7.00;98.20;;;;;;5086367;28;20475;-77
2022/10/12 00:44:42;;;;;;;1.50;1.30;;;7.00;98.20;;;;;;5092869;28;20522;-77
2022/10/12 00:47:17;;;;;;;1.60;1.30;;;7.00;98.20;;;;;;5052482;28;20489;-77
2022/10/12 00:49:48;;;;;;;1.60;1.40;;;6.90;98.20;;;;;;5090993;28;20984;-77
2022/10/12 00:52:17;;;;;;;1.50;1.30;;;6.90;98.20;;;;;;5069282;28;20565;-77
2022/10/12 00:54:48;;;;;;;1.50;1.30;;;6.90;98.20;;;;;;5080687;28;20484;-77
2022/10/12 00:57:17;;;;;;;1.53;1.30;;;6.90;98.20;;;;;;5065020;28;20487;-77
2022/10/12 00:59:50;;;;;;;1.50;1.30;;;6.90;98.20;;;;;;5084737;28;20617;-78
2022/10/12 01:02:18;;;;;;;1.53;1.30;;;6.90;98.20;;;;;;5062648;28;20481;-77
2022/10/12 01:04:45;;;;;;;1.53;1.27;;;6.90;98.20;;;;;;5084489;28;20452;-78
2022/10/12 01:07:12;;;;;;;1.57;1.30;;;6.90;98.20;;;;;;5084017;28;20562;-78
2022/10/12 01:09:39;;;;;;;1.50;1.20;;;6.80;98.20;;;;;;5090103;28;20456;-77
2022/10/12 01:12:08;;;;;;;1.50;1.27;;;6.80;98.20;;;;;;5063535;28;20496;-77
2022/10/12 01:14:35;;;;;;;1.50;1.30;;;6.80;98.20;;;;;;5073715;28;20524;-79
2022/10/12 01:17:12;;;;;;;1.50;1.20;;;6.80;98.20;;;;;;5083404;28;20478;-78
2022/10/12 01:20:25;;;;;;;1.60;1.40;;;6.80;98.20;;;;;;5091238;28;20874;-78
2022/10/12 01:23:04;;;;;;;1.53;1.30;;;6.80;98.20;;;;;;5064397;28;20559;-78
2022/10/12 01:25:50;;;;;;;1.57;1.30;;;6.80;98.20;;;;;;5087120;28;20941;-78
2022/10/12 01:28:23;;;;;;;1.53;1.30;;;6.80;98.20;;;;;;5079966;28;20468;-80
2022/10/12 01:30:59;;;;;;;1.53;1.30;;;6.70;98.20;;;;;;5082639;28;20946;-78
2022/10/12 01:33:29;;;;;;;1.50;1.30;;;6.70;98.20;;;;;;5071963;28;20576;-78
2022/10/12 01:36:04;;;;;;;1.50;1.30;;;6.70;98.20;;;;;;5084313;28;20988;-78
2022/10/12 01:38:47;;;;;;;1.57;1.30;;;6.70;98.20;;;;;;5078965;28;20969;-78
2022/10/12 01:41:21;;;;;;;1.50;1.30;;;6.70;98.20;;;;;;5077338;28;21257;-78
2022/10/12 01:43:51;;;;;;;1.50;1.30;;;6.60;98.20;;;;;;5078632;28;20492;-77
2022/10/12 01:46:44;;;;;;;1.57;1.30;;;6.60;98.20;;;;;;5076366;28;20605;-79
2022/10/12 01:49:15;;;;;;;1.50;1.27;;;6.60;98.20;;;;;;5078897;28;20468;-79
2022/10/12 01:52:08;;;;;;;1.50;1.30;;;6.60;98.20;;;;;;5075465;28;20473;-78
2022/10/12 01:54:47;;;;;;;1.53;1.37;;;6.60;98.20;;;;;;5081971;28;20829;-78
2022/10/12 01:57:20;;;;;;;1.60;1.40;;;6.60;98.20;;;;;;5079601;28;20479;-77
2022/10/12 01:59:58;;;;;;;1.53;1.30;;;6.50;98.20;;;;;;5086273;28;20496;-79
2022/10/12 02:02:33;;;;;;;1.60;1.30;;;6.50;98.20;;;;;;5062988;28;20495;-77
2022/10/12 02:05:05;;;;;;;1.53;1.30;;;6.50;98.20;;;;;;5087861;28;20553;-78
2022/10/12 02:07:41;;;;;;;1.50;1.30;;;6.50;98.20;;;;;;5077381;28;20485;-79
2022/10/12 02:10:13;;;;;;;1.60;1.40;;;6.40;98.20;;;;;;5089550;28;20544;-79
2022/10/12 02:12:42;;;;;;;1.60;1.50;;;6.50;98.20;;;;;;5058064;28;20481;-80
2022/10/12 02:15:11;;;;;;;1.53;1.30;;;6.40;98.20;;;;;;5082706;28;21086;-78
2022/10/12 02:17:42;;;;;;;1.53;1.30;;;6.40;98.20;;;;;;5090554;28;20479;-78
2022/10/12 02:20:12;;;;;;;1.53;1.30;;;6.40;98.20;;;;;;5085711;28;20848;-78
2022/10/12 02:22:42;;;;;;;1.50;1.30;;;6.40;98.20;;;;;;5071694;28;20476;-77
2022/10/12 02:25:13;;;;;;;1.53;1.30;;;6.40;98.20;;;;;;5091034;28;20561;-78
2022/10/12 02:27:44;;;;;;;1.57;1.40;;;6.40;98.20;;;;;;5063946;28;21000;-78
2022/10/12 02:30:12;;;;;;;1.53;1.40;;;6.30;98.20;;;;;;5085636;28;20943;-78
2022/10/12 02:32:49;;;;;;;1.57;1.40;;;6.30;98.20;;;;;;5072868;28;20499;-77
2022/10/12 02:35:23;;;;;;;1.50;1.30;;;6.30;98.20;;;;;;5086861;28;20460;-78
2022/10/12 02:37:54;;;;;;;1.50;1.30;;;6.30;98.20;;;;;;5069602;28;20485;-78
2022/10/12 02:40:26;;;;;;;1.50;1.30;;;6.30;98.20;;;;;;5089282;28;20468;-78
2022/10/12 02:42:55;;;;;;;1.60;1.40;;;6.30;98.20;;;;;;5066898;28;20607;-78
2022/10/12 02:45:24;;;;;;;1.60;1.43;;;6.20;98.20;;;;;;5086899;28;20510;-77
2022/10/12 02:47:55;;;;;;;1.57;1.40;;;6.20;98.20;;;;;;5092204;28;20483;-79
2022/10/12 02:50:24;;;;;;;1.57;1.30;;;6.20;98.20;;;;;;5076001;28;20462;-78
2022/10/12 02:52:52;;;;;;;1.57;1.40;;;6.20;98.20;;;;;;5092015;28;20488;-78
2022/10/12 02:55:22;;;;;;;1.53;1.40;;;6.20;98.20;;;;;;5089811;28;20555;-79
2022/10/12 02:57:49;;;;;;;1.50;1.30;;;6.20;98.20;;;;;;5076714;28;20567;-79
2022/10/12 03:00:17;;;;;;;1.57;1.30;;;6.20;98.20;;;;;;5089126;28;20468;-79
2022/10/12 03:02:44;;;;;;;1.53;1.30;;;6.20;98.20;;;;;;5077147;28;20494;-79
2022/10/12 03:05:12;;;;;;;1.57;1.40;;;6.20;98.20;;;;;;5089415;28;20488;-78
2022/10/12 03:07:39;;;;;;;1.53;1.30;;;6.20;98.20;;;;;;5077698;28;20580;-78
2022/10/12 03:10:07;;;;;;;1.50;1.30;;;6.20;98.20;;;;;;5083987;28;20464;-78
2022/10/12 03:12:34;;;;;;;1.50;1.30;;;6.20;98.20;;;;;;5067365;28;20561;-79
2022/10/12 03:15:00;;;;;;;1.53;1.33;;;6.20;98.20;;;;;;5077892;28;20457;-77
2022/10/12 03:17:27;;;;;;;1.60;1.30;;;6.20;98.20;;;;;;5072432;28;20485;-77
2022/10/12 03:19:54;;;;;;;1.60;1.40;;;6.20;98.20;;;;;;5089280;28;21039;-78
2022/10/12 03:25:08;;;;;;;1.50;1.30;;;6.20;98.20;;;;;;5087830;28;20496;-79
2022/10/12 03:27:35;;;;;;;1.50;1.40;;;6.10;98.20;;;;;;5063383;28;20823;-79
2022/10/12 03:30:02;;;;;;;1.53;1.30;;;6.10;98.20;;;;;;5085757;28;20530;-78
2022/10/12 03:32:29;;;;;;;1.57;1.30;;;6.10;98.20;;;;;;5074080;28;20563;-77
2022/10/12 03:34:56;;;;;;;1.50;1.30;;;6.10;98.20;;;;;;5089810;28;20930;-78
2022/10/12 03:37:25;;;;;;;1.60;1.40;;;6.10;98.20;;;;;;5075604;28;20566;-78
2022/10/12 03:39:52;;;;;;;1.60;1.30;;;6.10;98.20;;;;;;5089442;28;20547;-78
2022/10/12 03:42:19;;;;;;;1.60;1.33;;;6.00;98.20;;;;;;5083548;28;20963;-79
2022/10/12 03:44:46;;;;;;;1.53;1.30;;;6.00;98.20;;;;;;5083571;28;20498;-78
2022/10/12 03:47:13;;;;;;;1.50;1.30;;;6.00;98.20;;;;;;5088348;28;20511;-78
2022/10/12 03:49:40;;;;;;;1.60;1.40;;;6.00;98.20;;;;;;5088259;28;20836;-78
2022/10/12 03:52:07;;;;;;;1.57;1.30;;;5.90;98.20;;;;;;5066912;28;20485;-75
2022/10/12 03:54:36;;;;;;;1.53;1.30;;;5.90;98.20;;;;;;5076852;28;20532;-78
2022/10/12 03:57:03;;;;;;;1.60;1.40;;;5.90;98.20;;;;;;5084956;28;20879;-76
2022/10/12 03:59:30;;;;;;;1.50;1.30;;;5.90;98.20;;;;;;5093433;28;20460;-77
2022/10/12 04:01:57;;;;;;;1.50;1.30;;;5.90;98.20;;;;;;5071641;28;20549;-77
2022/10/12 04:04:24;;;;;;;1.57;1.40;;;5.80;98.20;;;;;;5084480;28;20904;-77
2022/10/12 04:06:51;;;;;;;1.60;1.30;;;5.80;98.20;;;;;;5075501;28;20495;-77
2022/10/12 04:09:18;;;;;;;1.60;1.40;;;5.80;98.20;;;;;;5086602;28;20475;-78
2022/10/12 04:11:47;;;;;;;1.50;1.40;;;5.80;98.20;;;;;;5073198;28;20556;-77
2022/10/12 04:14:14;;;;;;;1.50;1.30;;;5.80;98.20;;;;;;5078313;28;20985;-77
2022/10/12 04:16:41;;;;;;;1.50;1.30;;;5.80;98.20;;;;;;5071928;28;20473;-74
2022/10/12 04:19:12;;;;;;;1.60;1.40;;;5.80;98.20;;;;;;5076895;28;20456;-77
2022/10/12 04:21:39;;;;;;;1.60;1.40;;;5.80;98.20;;;;;;5069750;28;20534;-77
2022/10/12 04:24:06;;;;;;;1.50;1.30;;;5.80;98.20;;;;;;5086009;28;20481;-77
2022/10/12 04:26:33;;;;;;;1.57;1.30;;;5.80;98.20;;;;;;5071585;28;20503;-78
2022/10/12 04:29:02;;;;;;;1.50;1.30;;;5.80;98.20;;;;;;5083275;28;20460;-77
2022/10/12 04:31:29;;;;;;;1.50;1.30;;;5.80;98.20;;;;;;5076419;28;20498;-77
2022/10/12 04:33:56;;;;;;;1.53;1.40;;;5.80;98.20;;;;;;5086848;28;20557;-76
2022/10/12 04:36:23;;;;;;;1.50;1.30;;;5.80;98.20;;;;;;5072335;28;20554;-76
2022/10/12 04:38:50;;;;;;;1.53;1.30;;;5.80;98.20;;;;;;5077018;28;20829;-76
2022/10/12 04:41:17;;;;;;;1.53;1.30;;;5.80;98.20;;;;;;5077011;28;20555;-77
2022/10/12 04:43:44;;;;;;;1.60;1.30;;;5.90;98.20;;;;;;5080995;28;20523;-76
2022/10/12 04:46:15;;;;;;;1.50;1.20;;;5.90;98.20;;;;;;5077830;28;20468;-77
2022/10/12 04:48:45;;;;;;;1.60;1.50;;;5.90;98.20;;;;;;5076128;28;20468;-77
2022/10/12 04:51:13;;;;;;;1.50;1.30;;;5.90;98.20;;;;;;5079725;28;20509;-78
2022/10/12 04:53:40;;;;;;;1.50;1.30;;;6.00;98.20;;;;;;5089759;28;20583;-77
2022/10/12 04:56:08;;;;;;;1.50;1.30;;;6.00;98.20;;;;;;5079811;28;20469;-78
2022/10/12 04:58:35;;;;;;;1.60;1.40;;;6.00;98.20;;;;;;5086446;28;20464;-78
2022/10/12 05:01:02;;;;;;;1.50;1.30;;;6.10;98.20;;;;;;5080639;28;20854;-79
2022/10/12 05:03:30;;;;;;;1.53;1.27;;;6.10;98.20;;;;;;5083767;28;20543;-78
2022/10/12 05:05:58;;;;;;;1.57;1.30;;;6.10;98.20;;;;;;5079709;28;20503;-78
2022/10/12 05:08:25;;;;;;;1.57;1.30;;;6.20;98.20;;;;;;5073633;28;21215;-77
2022/10/12 05:10:52;;;;;;;1.53;1.40;;;6.20;98.20;;;;;;5081560;28;20465;-77
2022/10/12 05:13:19;;;;;;;1.57;1.30;;;6.20;98.20;;;;;;5086583;28;20477;-78
2022/10/12 05:15:46;;;;;;;1.53;1.30;;;6.20;98.20;;;;;;5085501;28;20467;-77
2022/10/12 05:18:13;;;;;;;1.50;1.30;;;6.20;98.20;;;;;;5064910;28;21050;-77
2022/10/12 05:20:42;;;;;;;1.60;1.50;;;6.20;98.20;;;;;;5085381;28;20583;-77
2022/10/12 05:23:10;;;;;;;1.50;1.30;;;6.20;98.20;;;;;;5075560;28;20509;-76
2022/10/12 05:25:37;;;;;;;1.53;1.30;;;6.20;98.20;;;;;;5092603;28;20563;-76
2022/10/12 05:28:05;;;;;;;1.53;1.30;;;6.20;98.20;;;;;;5062385;28;21556;-76
2022/10/12 05:30:32;;;;;;;1.60;1.40;;;6.30;98.20;;;;;;5078794;28;20481;-77
2022/10/12 05:32:59;;;;;;;1.50;1.40;;;6.30;98.20;;;;;;5075060;28;20565;-78
2022/10/12 05:35:27;;;;;;;1.53;1.30;;;6.30;98.20;;;;;;5090467;28;20879;-77
2022/10/12 05:37:55;;;;;;;1.53;1.30;;;6.30;98.20;;;;;;5066268;28;20488;-79
2022/10/12 05:40:23;;;;;;;1.57;1.30;;;6.30;98.20;;;;;;5091816;28;20551;-77
2022/10/12 05:42:49;;;;;;;1.50;1.30;;;6.30;98.20;;;;;;5068502;28;20863;-77
2022/10/12 05:45:17;;;;;;;1.50;1.30;;;6.30;98.20;;;;;;5083005;28;20480;-78
2022/10/12 05:47:44;;;;;;;1.50;1.27;;;6.30;98.20;;;;;;5072849;28;20476;-78
2022/10/12 05:50:11;;;;;;;1.50;1.30;;;6.20;98.20;;;;;;5090013;28;20456;-78
2022/10/12 05:52:38;;;;;;;1.50;1.20;;;6.20;98.20;;;;;;5077752;28;21058;-77
2022/10/12 05:55:08;;;;;;;1.60;1.40;;;6.20;98.20;;;;;;5085592;28;20837;-78
2022/10/12 05:57:35;;;;;;;1.50;1.30;;;6.20;98.20;;;;;;5067214;28;21456;-77
2022/10/12 06:00:03;;;;;;;1.50;1.30;;;6.10;98.20;;;;;;5086580;28;20464;-77
2022/10/12 06:02:30;;;;;;;1.50;1.30;;;6.10;98.20;;;;;;5088862;28;20921;-77
2022/10/12 06:04:57;;;;;;;1.60;1.40;;;6.10;98.20;;;;;;5091291;28;20576;-77
2022/10/12 06:07:24;;;;;;;1.50;1.30;;;6.00;98.20;;;;;;5066877;28;20480;-77
2022/10/12 06:09:51;;;;;;;1.53;1.30;;;6.00;98.20;;;;;;5086116;28;20949;-76
2022/10/12 06:12:19;;;;;;;1.50;1.23;;;6.00;98.20;;;;;;5077547;28;20493;-77
2022/10/12 06:14:46;;;;;;;1.53;1.30;;;6.00;98.20;;;;;;5081414;28;20460;-78
2022/10/12 06:17:13;;;;;;;1.50;1.30;;;5.90;98.20;;;;;;5068216;28;20878;-77
2022/10/12 06:19:40;;;;;;;1.57;1.30;;;5.90;98.20;;;;;;5084496;28;20521;-77
2022/10/12 06:22:08;;;;;;;1.50;1.30;;;5.90;98.20;;;;;;5076836;28;20938;-77
2022/10/12 06:24:35;;;;;;;1.60;1.30;;;5.90;98.20;;;;;;5087493;28;20525;-76
2022/10/12 06:27:02;;;;;;;1.50;1.30;;;5.90;98.20;;;;;;5084187;28;20484;-76
2022/10/12 06:29:30;;;;;;;1.50;1.30;;;5.90;98.20;;;;;;5093517;28;20452;-77
2022/10/12 06:31:57;;;;;;;1.60;1.40;;;5.90;98.20;;;;;;5073334;28;20522;-76
2022/10/12 06:34:25;;;;;;;1.57;1.30;;;6.00;98.20;;;;;;5085061;28;20551;-75
2022/10/12 06:36:52;;;;;;;1.50;1.30;;;6.00;98.20;;;;;;5075374;28;20477;-76
2022/10/12 06:39:20;;;;;;;1.50;1.30;;;6.10;98.20;;;;;;5084637;28;21022;-75
2022/10/12 06:41:47;;;;;;;1.53;1.30;;;6.20;98.20;;;;;;5084890;28;20837;-76
2022/10/12 06:44:14;;;;;;;1.50;1.30;;;6.30;98.20;;;;;;5089842;28;20546;-77
2022/10/12 06:47:04;;;;;;;1.50;1.20;;;6.40;98.20;;;;;;5060216;28;20491;-76
2022/10/12 06:49:31;;;;;;;1.50;1.30;;;6.60;98.20;;;;;;5071545;28;20586;-77
2022/10/12 06:51:58;;;;;;;1.57;1.30;;;6.70;98.20;;;;;;5075904;28;20929;-76
2022/10/12 06:54:26;;;;;;;1.53;1.30;;;6.70;98.20;;;;;;5085489;28;20464;-77
2022/10/12 06:56:53;;;;;;;1.57;1.30;;;6.80;98.20;;;;;;5073687;28;20494;-76
2022/10/12 06:59:21;;;;;;;1.50;1.20;;;7.00;98.20;;;;;;5080560;28;20457;-76
2022/10/12 07:01:50;;;;;;;1.50;1.30;;;7.10;98.20;;;;;;5075115;28;20534;-77
2022/10/12 07:04:17;;;;;;;1.50;1.30;;;7.20;98.20;;;;;;5086048;28;20908;-76
2022/10/12 07:06:45;;;;;;;1.60;1.30;;;7.30;98.20;;;;;;5073687;28;20484;-77
2022/10/12 07:09:12;;;;;;;1.53;1.30;;;7.40;98.20;;;;;;5081144;28;20858;-77
2022/10/12 07:11:40;;;;;;;1.60;1.30;;;7.50;98.20;;;;;;5072816;28;20508;-77
2022/10/12 07:14:07;;;;;;;1.50;1.27;;;7.60;98.20;;;;;;5079712;28;20538;-77
2022/10/12 07:16:34;;;;;;;1.53;1.20;;;7.70;98.20;;;;;;5070916;28;20477;-77
2022/10/12 07:19:03;;;;;;;1.50;1.30;;;7.90;98.20;;;;;;5083632;28;20526;-77
2022/10/12 07:21:30;;;;;;;1.50;1.20;;;8.00;98.20;;;;;;5073125;28;20484;-77
2022/10/12 07:23:57;;;;;;;1.50;1.30;;;8.20;98.20;;;;;;5082871;28;20537;-77
2022/10/12 07:26:25;;;;;;;1.53;1.30;;;8.40;98.20;;;;;;5078441;28;20482;-76
2022/10/12 07:28:52;;;;;;;1.50;1.20;;;8.60;98.20;;;;;;5092858;28;20459;-75
2022/10/12 07:31:19;;;;;;;1.50;1.20;;;8.80;98.20;;;;;;5078538;28;21099;-77
2022/10/12 07:33:47;;;;;;;1.50;1.30;;;9.00;98.20;;;;;;5096393;28;20484;-77
2022/10/12 07:36:15;;;;;;;1.50;1.20;;;9.20;98.20;;;;;;5075592;28;20503;-76
2022/10/12 07:38:51;;;;;;;1.53;1.30;;;9.30;98.20;;;;;;5079170;28;20456;-77
2022/10/12 07:41:18;;;;;;;1.83;1.73;;;9.50;98.20;;;;;;5078758;28;20463;-76
2022/10/12 07:43:45;;;;;;;1.50;1.20;;;9.60;98.20;;;;;;5086933;28;20483;-76
2022/10/12 07:46:12;;;;;;;1.50;1.20;;;9.70;98.20;;;;;;5076793;28;20480;-77
2022/10/12 07:48:40;;;;;;;1.50;1.10;;;9.80;98.20;;;;;;5085048;28;20472;-76
2022/10/12 07:51:09;;;;;;;2.17;1.70;;;9.80;98.20;;;;;;5077742;28;20472;-77
2022/10/12 07:53:39;;;;;;;1.60;1.30;;;9.80;98.20;;;;;;5084521;28;20575;-77
2022/10/12 07:56:13;;;;;;;1.57;1.20;;;9.80;98.20;;;;;;5076615;28;20526;-76
2022/10/12 07:58:40;;;;;;;1.53;1.20;;;9.80;98.20;;;;;;5078332;28;20480;-76
2022/10/12 08:01:09;;;;;;;1.93;1.73;;;9.90;98.20;;;;;;5074852;28;20472;-76
2022/10/12 08:03:37;;;;;;;1.50;1.20;;;9.90;98.20;;;;;;5076488;28;20480;-76
2022/10/12 08:06:42;;;;;;;;;;;;;;;;;;;;;
2022/10/12 08:09:11;;;;;;;1.57;1.20;;;10.20;98.20;;;;;;5089147;28;20470;-76
2022/10/12 08:11:39;;;;;;;1.53;1.13;;;10.40;98.20;;;;;;5080557;28;20657;-76
2022/10/12 08:14:07;;;;;;;1.53;1.10;;;10.60;98.20;;;;;;5087282;28;20532;-76
2022/10/12 08:16:34;;;;;;;1.50;1.10;;;10.80;98.20;;;;;;5077766;28;20476;-76
2022/10/12 08:19:02;;;;;;;1.50;1.20;;;11.00;98.20;;;;;;5085362;28;20829;-76
2022/10/12 08:21:29;;;;;;;1.50;1.10;;;11.20;98.20;;;;;;5074609;28;20481;-76
2022/10/12 08:23:56;;;;;;;1.60;1.40;;;11.30;98.20;;;;;;5088154;28;20491;-76
2022/10/12 08:26:24;;;;;;;1.50;1.07;;;11.50;98.20;;;;;;5079968;28;20550;-76
2022/10/12 08:28:51;;;;;;;1.50;1.07;;;11.40;98.20;;;;;;5077763;28;20466;-76
2022/10/12 08:31:19;;;;;;;1.53;1.10;;;11.50;98.20;;;;;;5082923;28;21032;-76
2022/10/12 08:33:46;;;;;;;1.50;1.17;;;11.70;98.20;;;;;;5103159;28;20484;-77
2022/10/12 08:36:14;;;;;;;1.50;1.00;;;11.90;98.20;;;;;;5082704;28;20471;-77
2022/10/12 08:42:14;;;;;;;1.50;1.10;;;12.10;98.20;;;;;;5056967;28;20480;-77
2022/10/12 08:44:59;;;;;;;1.50;1.00;;;12.00;98.20;;;;;;5087016;28;20551;-77
2022/10/12 08:47:35;;;;;;;1.50;1.10;;;12.00;98.20;;;;;;5083669;28;20847;-77
2022/10/12 08:50:07;;;;;;;1.50;1.10;;;12.00;98.20;;;;;;5095996;28;20556;-77
2022/10/12 08:52:41;;;;;;;1.53;1.10;;;12.10;98.20;;;;;;5071570;28;20697;-77
2022/10/12 08:55:32;;;;;;;1.50;1.00;;;12.20;98.20;;;;;;5095127;28;20460;-77
2022/10/12 08:58:01;;;;;;;1.50;1.00;;;12.20;98.20;;;;;;5081776;28;20672;-77
2022/10/12 09:00:31;;;;;;;1.60;1.10;;;12.30;98.20;;;;;;5095622;28;20464;-77
2022/10/12 09:03:09;;;;;;;1.50;1.10;;;12.30;98.20;;;;;;5070202;28;20512;-77
2022/10/12 09:05:43;;;;;;;1.50;1.10;;;12.40;98.20;;;;;;5093357;28;20475;-77
2022/10/12 09:08:28;;;;;;;1.50;1.00;;;12.60;98.20;;;;;;5065714;28;20568;-76
2022/10/12 09:11:05;;;;;;;1.50;1.00;;;12.90;98.20;;;;;;5080371;28;20801;-76
2022/10/12 09:13:44;;;;;;;1.50;1.00;;;13.20;98.20;;;;;;5088494;28;20867;-77
2022/10/12 09:16:21;;;;;;;1.50;1.00;;;13.60;98.20;;;;;;5077193;28;20476;-77
2022/10/12 09:18:52;;;;;;;1.53;1.07;;;13.90;98.20;;;;;;5082696;28;20472;-77
2022/10/12 09:21:23;;;;;;;1.50;0.90;;;14.10;97.90;;;;;;5085448;28;20475;-76
2022/10/12 09:23:51;;;;;;;1.50;1.00;;;14.20;97.60;;;;;;5111070;28;20469;-78
2022/10/12 09:26:21;;;;;;;1.53;1.00;;;14.20;97.10;;;;;;5080050;28;20559;-78
2022/10/12 09:28:53;;;;;;;1.50;1.00;;;14.20;97.00;;;;;;5091174;28;20868;-78
2022/10/12 09:31:41;;;;;;;1.50;0.93;;;14.20;96.70;;;;;;5076785;28;20473;-78
2022/10/12 09:34:10;;;;;;;1.70;1.40;;;14.20;96.20;;;;;;5088578;28;20892;-78
2022/10/12 09:36:38;;;;;;;1.50;1.00;;;14.10;96.10;;;;;;5079856;28;20548;-78
2022/10/12 09:39:10;;;;;;;1.50;1.00;;;14.10;96.90;;;;;;5093169;28;20453;-77
2022/10/12 09:41:41;;;;;;;1.50;1.00;;;14.10;97.60;;;;;;5079815;28;20468;-78
2022/10/12 09:44:16;;;;;;;1.50;0.90;;;14.10;96.90;;;;;;5087645;28;20488;-78
2022/10/12 09:46:49;;;;;;;1.50;0.90;;;14.10;96.00;;;;;;5079322;28;20486;-78
2022/10/12 09:49:18;;;;;;;1.50;1.00;;;14.20;97.20;;;;;;5096328;28;20485;-78
2022/10/12 09:51:46;;;;;;;1.50;1.00;;;14.40;96.60;;;;;;5083541;28;21008;-77
2022/10/12 09:54:19;;;;;;;1.50;0.90;;;14.60;94.70;;;;;;5094816;28;20480;-78
2022/10/12 09:56:50;;;;;;;1.50;1.07;;;14.50;94.20;;;;;;5083693;28;20506;-78
2022/10/12 09:59:29;;;;;;;1.50;1.00;;;14.50;95.50;;;;;;5092995;28;20469;-78
2022/10/12 10:02:12;;;;;;;1.50;1.00;;;14.60;94.90;;;;;;5072332;28;21016;-78
2022/10/12 10:04:40;;;;;;;1.60;1.10;;;14.60;94.90;;;;;;5092983;28;20942;-78
2022/10/12 10:07:20;;;;;;;1.50;0.90;;;14.60;94.40;;;;;;5069193;28;20485;-78
2022/10/12 10:09:48;;;;;;;1.50;1.00;;;14.50;95.10;;;;;;5078567;28;20544;-78
2022/10/12 10:12:24;;;;;;;1.50;1.00;;;14.60;95.40;;;;;;5068458;28;20508;-79
2022/10/12 10:14:56;;;;;;;1.50;1.00;;;14.80;95.50;;;;;;5086208;28;20456;-79
2022/10/12 10:17:26;;;;;;;1.50;1.00;;;15.10;95.60;;;;;;5078980;28;20549;-79
2022/10/12 10:19:55;;;;;;;1.50;1.00;;;15.30;93.30;;;;;;5093840;28;20469;-79
2022/10/12 10:22:24;;;;;;;1.50;1.00;;;15.40;93.10;;;;;;5082339;28;20517;-78
2022/10/12 10:24:53;;;;;;;1.50;1.00;;;15.60;93.40;;;;;;5090266;28;20494;-78
2022/10/12 10:27:31;;;;;;;1.50;1.00;;;15.80;91.40;;;;;;5076864;28;20487;-78
2022/10/12 10:30:20;;;;;;;1.50;1.00;;;16.00;91.30;;;;;;5085443;28;20463;-78
2022/10/12 10:32:47;;;;;;;1.50;1.00;;;16.10;91.40;;;;;;5063949;28;20550;-78
2022/10/12 10:35:23;;;;;;;1.50;0.90;;;16.30;90.80;;;;;;5087663;28;20475;-78
2022/10/12 10:37:54;;;;;;;1.50;0.90;;;16.30;90.70;;;;;;5076420;28;20492;-78
2022/10/12 10:40:31;;;;;;;1.50;0.90;;;16.40;90.50;;;;;;5091895;28;20460;-80
2022/10/12 10:43:03;;;;;;;1.50;1.00;;;16.50;89.70;;;;;;5065488;28;20507;-79
2022/10/12 10:45:36;;;;;;;1.50;0.93;;;16.60;89.70;;;;;;5091817;28;20465;-78
2022/10/12 10:48:09;;;;;;;1.50;0.90;;;16.80;89.10;;;;;;5075153;28;20539;-79
2022/10/12 10:50:39;;;;;;;1.50;1.00;;;16.80;89.90;;;;;;5088161;28;20460;-78
2022/10/12 10:53:15;;;;;;;1.50;0.90;;;17.00;88.50;;;;;;5097510;28;20475;-78
2022/10/12 10:55:48;;;;;;;1.50;0.90;;;17.10;89.50;;;;;;5093746;28;20464;-79
2022/10/12 11:01:48;;;;;;;1.50;1.00;;;17.60;87.80;;;;;;5053281;28;20563;-78
2022/10/12 11:04:21;;;;;;;1.50;1.00;;;17.60;87.50;;;;;;5087624;28;20483;-78
2022/10/12 11:06:53;;;;;;;1.50;0.90;;;17.60;86.30;;;;;;5079130;28;20898;-78
2022/10/12 11:09:28;;;;;;;1.50;0.90;;;17.60;87.30;;;;;;5091833;28;20469;-78
2022/10/12 11:11:59;;;;;;;1.50;0.90;;;17.50;88.00;;;;;;5075356;28;20484;-78
2022/10/12 11:14:31;;;;;;;1.50;0.90;;;17.50;87.50;;;;;;5087596;28;20546;-78
2022/10/12 11:17:04;;;;;;;1.50;0.90;;;17.70;88.90;;;;;;5073294;28;20476;-78
2022/10/12 11:19:41;;;;;;;1.50;0.90;;;17.90;88.30;;;;;;5089533;28;20882;-77
2022/10/12 11:22:16;;;;;;;1.50;0.90;;;18.10;85.90;;;;;;5071376;28;20476;-78
2022/10/12 11:24:47;;;;;;;1.50;0.90;;;18.20;86.50;;;;;;5083326;28;20455;-78
2022/10/12 11:27:22;;;;;;;1.50;0.90;;;18.40;86.40;;;;;;5072067;28;20661;-78
2022/10/12 11:29:52;;;;;;;1.50;0.90;;;18.60;86.10;;;;;;5091385;28;20652;-78
2022/10/12 11:32:26;;;;;;;1.60;1.10;;;18.70;83.70;;;;;;5076305;28;21033;-78
2022/10/12 11:34:57;;;;;;;1.50;0.90;;;18.50;84.60;;;;;;5094670;28;20464;-78
2022/10/12 11:37:33;;;;;;;1.50;0.90;;;18.60;86.00;;;;;;5083005;28;20479;-77
2022/10/12 11:40:02;;;;;;;1.50;0.90;;;18.80;85.00;;;;;;5094657;28;20824;-78
2022/10/12 11:42:32;;;;;;;1.50;0.90;;;18.80;83.80;;;;;;5077516;28;20480;-78
2022/10/12 11:45:05;;;;;;;1.50;0.90;;;18.50;84.00;;;;;;5085713;28;20461;-77
2022/10/12 11:47:39;;;;;;;1.50;0.90;;;18.30;85.20;;;;;;5093003;28;20472;-78
2022/10/12 11:50:18;;;;;;;1.50;1.00;;;18.10;85.70;;;;;;5093353;28;20460;-78
2022/10/12 11:52:49;;;;;;;1.50;0.90;;;18.00;87.10;;;;;;5076113;28;20483;-77
2022/10/12 11:55:30;;;;;;;1.80;1.20;;;18.20;88.20;;;;;;5091878;28;20964;-78
2022/10/12 11:58:02;;;;;;;1.50;0.90;;;18.50;87.00;;;;;;5093428;28;20537;-78
2022/10/12 12:00:37;;;;;;;1.50;0.90;;;18.80;85.60;;;;;;5094706;28;20642;-77
2022/10/12 12:03:17;;;;;;;1.50;0.90;;;19.00;85.80;;;;;;5099022;28;20478;-78
2022/10/12 12:05:52;;;;;;;1.50;0.90;;;19.10;84.30;;;;;;5096794;28;20559;-79
2022/10/12 12:08:43;;;;;;;1.70;1.27;;;19.20;84.90;;;;;;5082971;28;20472;-78
2022/10/12 12:11:22;;;;;;;1.50;0.90;;;19.30;85.10;;;;;;5087004;28;20555;-78
2022/10/12 12:13:50;;;;;;;1.50;0.90;;;19.40;84.40;;;;;;5093552;28;20480;-78
2022/10/12 12:16:35;;;;;;;1.50;0.90;;;19.50;84.90;;;;;;5084072;28;20478;-78
2022/10/12 12:19:36;;;;;;;1.50;0.90;;;19.70;84.20;;;;;;5099048;28;20456;-79
2022/10/12 12:22:36;;;;;;;1.50;1.10;;;19.80;83.90;;;;;;5072092;28;20727;-79
2022/10/12 12:28:24;;;;;;;1.50;0.90;;;19.70;84.20;;;;;;5075502;28;20498;-76
2022/10/12 12:31:11;;;;;;;1.50;0.90;;;19.60;84.00;;;;;;5082123;28;20547;-77
2022/10/12 12:33:41;;;;;;;1.50;0.90;;;19.60;84.40;;;;;;5086625;28;20504;-78
2022/10/12 12:36:10;;;;;;;1.50;1.00;;;19.40;83.80;;;;;;5080009;28;20536;-76
2022/10/12 12:38:40;;;;;;;1.50;0.90;;;19.20;84.40;;;;;;5076890;28;20480;-76
2022/10/12 12:41:11;;;;;;;1.50;1.00;;;19.10;85.20;;;;;;5079590;28;21054;-76
2022/10/12 12:44:01;;;;;;;1.50;0.90;;;19.00;85.20;;;;;;5071895;28;20487;-76
2022/10/12 12:47:11;;;;;;;1.50;1.00;;;19.00;85.60;;;;;;5070869;28;20513;-76
2022/10/12 12:49:45;;;;;;;1.47;0.90;;;18.90;85.70;;;;;;5085439;28;20550;-76
2022/10/12 12:52:19;;;;;;;1.50;0.90;;;19.00;86.50;;;;;;5068383;28;21086;-76
2022/10/12 12:55:16;;;;;;;1.47;0.90;;;19.00;85.80;;;;;;5083590;28;20478;-76
2022/10/12 12:58:10;;;;;;;1.50;0.90;;;19.00;86.70;;;;;;5067576;28;20473;-76
2022/10/12 13:00:49;;;;;;;1.50;0.90;;;19.00;86.70;;;;;;5086322;28;20500;-77
2022/10/12 13:03:55;;;;;;;1.50;0.90;;;18.90;86.60;;;;;;5075075;28;20476;-76
2022/10/12 13:07:08;;;;;;;1.50;0.90;;;18.90;86.60;;;;;;5072314;28;20483;-76
2022/10/12 13:10:01;;;;;;;1.50;0.90;;;18.80;86.70;;;;;;5037543;28;20460;-77
2022/10/12 13:12:57;;;;;;;1.47;0.90;;;18.80;87.30;;;;;;5068143;28;20578;-76
2022/10/12 13:15:44;;;;;;;1.47;0.90;;;18.90;87.60;;;;;;5090536;28;20476;-77
2022/10/12 13:18:47;;;;;;;1.47;0.90;;;19.00;86.00;;;;;;5048688;28;20879;-76
2022/10/12 13:21:18;;;;;;;1.47;0.90;;;19.00;85.90;;;;;;5055024;28;20763;-76
2022/10/12 13:23:49;;;;;;;1.40;0.90;;;19.00;86.20;;;;;;5094046;28;20488;-77
2022/10/12 13:26:26;;;;;;;1.50;1.00;;;19.10;87.30;;;;;;5083625;28;20484;-77
2022/10/12 13:28:55;;;;;;;1.40;0.90;;;19.40;87.00;;;;;;5097281;28;20480;-76
2022/10/12 13:31:31;;;;;;;1.50;0.90;;;19.60;86.40;;;;;;5076862;28;20592;-77